Time;durP1;ratioP1;P1;durP2;ratioP2;P2;SDS_P1;SDS_P2;PMS_P1;PMS_P2;Temp;Humidity;BMP_temperature;BMP_pressure;BME280_temperature;BME280_humidity;BME280_pressure;Samples;Min_cycle;Max_cycle;Signal;HPM_P1;HPM_P2
2021/05/26 00:02:14;;;;;;;3.97;0.95;;;;;;;10.74;51.70;96534.69;5032421;28;20477;-65
2021/05/26 00:04:39;;;;;;;2.35;0.70;;;;;;;10.76;51.97;96532.47;5033234;28;20403;-65
2021/05/26 00:07:05;;;;;;;2.97;0.80;;;;;;;10.82;53.61;96528.47;5032751;28;20045;-65
2021/05/26 00:09:32;;;;;;;1.15;0.73;;;;;;;10.85;54.49;96533.28;5033294;28;20049;-65
2021/05/26 00:11:58;;;;;;;1.15;0.52;;;;;;;10.84;53.21;96526.22;5033105;28;20053;-65
2021/05/26 00:14:24;;;;;;;3.05;0.90;;;;;;;10.88;53.11;96527.22;5032743;28;20049;-65
2021/05/26 00:16:51;;;;;;;6.63;0.90;;;;;;;10.88;52.04;96521.75;5033006;28;20076;-65
2021/05/26 00:19:17;;;;;;;2.05;0.80;;;;;;;10.87;52.48;96509.25;5032563;28;20057;-65
2021/05/26 00:21:43;;;;;;;5.10;0.73;;;;;;;10.87;53.13;96514.72;5032877;28;20053;-65
2021/05/26 00:24:09;;;;;;;2.42;1.05;;;;;;;10.88;52.56;96499.97;5032589;28;20507;-65
2021/05/26 00:26:35;;;;;;;4.25;1.42;;;;;;;10.88;52.21;96499.97;5032955;28;20381;-65
2021/05/26 00:29:01;;;;;;;4.07;0.80;;;;;;;10.87;51.89;96503.81;5032709;28;20100;-65
2021/05/26 00:31:28;;;;;;;3.95;0.77;;;;;;;10.84;52.09;96493.53;5032731;28;20104;-65
2021/05/26 00:33:54;;;;;;;2.65;1.15;;;;;;;10.84;54.77;96485.38;5032199;28;20496;-65
2021/05/26 00:36:20;;;;;;;4.00;0.70;;;;;;;10.84;55.15;96482.63;5032322;28;20060;-65
2021/05/26 00:38:48;;;;;;;4.63;0.70;;;;;;;10.85;55.75;96484.25;5031750;28;20049;-65
2021/05/26 00:41:14;;;;;;;2.05;0.80;;;;;;;10.82;53.83;96487.63;5031997;28;20049;-65
2021/05/26 00:43:40;;;;;;;3.47;0.90;;;;;;;10.81;54.28;96483.28;5031048;28;20049;-65
2021/05/26 00:46:07;;;;;;;1.83;0.70;;;;;;;10.83;54.28;96481.03;5032053;28;20563;-65
2021/05/26 00:48:34;;;;;;;1.92;0.63;;;;;;;10.85;54.46;96489.69;5030410;28;20119;-65
2021/05/26 00:51:00;;;;;;;1.63;0.60;;;;;;;10.83;53.93;96486.50;5032221;28;20049;-65
2021/05/26 00:53:28;;;;;;;4.50;0.80;;;;;;;10.79;53.67;96486.31;5030687;28;20038;-65
2021/05/26 00:55:54;;;;;;;2.03;0.75;;;;;;;10.77;53.13;96490.47;5031786;28;20034;-65
2021/05/26 00:58:21;;;;;;;2.55;0.73;;;;;;;10.73;53.00;96478.59;5030930;28;20120;-65
2021/05/26 01:00:47;;;;;;;2.33;0.90;;;;;;;10.69;53.40;96487.38;5031519;28;20049;-66
2021/05/26 01:03:13;;;;;;;3.38;0.80;;;;;;;10.63;53.00;96477.75;5030887;28;20124;-65
2021/05/26 01:05:40;;;;;;;1.83;0.90;;;;;;;10.57;53.67;96483.69;5030875;28;20100;-65
2021/05/26 01:08:06;;;;;;;2.05;0.80;;;;;;;10.52;53.96;96476.44;5031145;28;20053;-66
2021/05/26 01:10:34;;;;;;;2.15;0.70;;;;;;;10.45;53.79;96466.00;5030653;28;20447;-65
2021/05/26 01:13:00;;;;;;;3.75;0.95;;;;;;;10.43;54.07;96470.16;5031830;28;20125;-65
2021/05/26 01:15:26;;;;;;;1.70;0.80;;;;;;;10.39;54.41;96470.00;5029979;28;20071;-65
2021/05/26 01:17:52;;;;;;;1.98;0.82;;;;;;;10.37;54.98;96465.97;5031688;28;20508;-65
2021/05/26 01:20:22;;;;;;;2.65;0.75;;;;;;;10.29;54.27;96466.75;5030107;28;20534;-65
2021/05/26 01:22:49;;;;;;;2.90;0.90;;;;;;;10.25;54.52;96457.59;5031673;28;20394;-65
2021/05/26 01:25:16;;;;;;;3.40;0.73;;;;;;;10.20;54.65;96459.31;5031487;28;20125;-65
2021/05/26 01:27:42;;;;;;;2.47;0.75;;;;;;;10.18;55.72;96458.81;5031827;28;20041;-65
2021/05/26 01:30:09;;;;;;;1.98;0.98;;;;;;;10.16;55.23;96457.50;5031117;28;20056;-66
2021/05/26 01:32:40;;;;;;;1.77;0.70;;;;;;;10.12;55.58;96443.72;5031397;28;20060;-65
2021/05/26 01:35:08;;;;;;;1.33;0.70;;;;;;;10.10;55.57;96443.25;5031203;28;20053;-65
2021/05/26 01:37:38;;;;;;;3.08;0.77;;;;;;;10.15;57.63;96440.38;5031446;28;20076;-65
2021/05/26 01:40:07;;;;;;;2.60;0.75;;;;;;;10.16;58.13;96436.53;5031176;28;20049;-66
2021/05/26 01:42:33;;;;;;;3.67;1.10;;;;;;;10.13;58.31;96437.19;5031493;28;20056;-65
2021/05/26 01:44:59;;;;;;;2.17;0.90;;;;;;;10.12;58.46;96430.13;5031513;28;20050;-65
2021/05/26 01:47:25;;;;;;;2.78;0.98;;;;;;;10.13;58.99;96431.75;5030947;28;20045;-65
2021/05/26 01:49:51;;;;;;;1.83;0.75;;;;;;;10.10;57.92;96432.34;5031398;28;20503;-65
2021/05/26 01:52:17;;;;;;;2.53;0.90;;;;;;;10.07;57.86;96427.53;5030804;28;20057;-65
2021/05/26 01:54:43;;;;;;;3.08;1.05;;;;;;;10.05;58.63;96427.06;5031147;28;20037;-65
2021/05/26 01:57:11;;;;;;;2.28;0.90;;;;;;;10.04;59.25;96430.91;5030705;28;20049;-65
2021/05/26 01:59:37;;;;;;;3.05;0.90;;;;;;;10.02;59.56;96414.06;5031177;28;20099;-65
2021/05/26 02:02:03;;;;;;;2.60;0.77;;;;;;;10.01;59.92;96426.06;5030479;28;20057;-65
2021/05/26 02:04:29;;;;;;;5.57;1.10;;;;;;;9.97;59.00;96421.56;5031308;28;20049;-65
2021/05/26 02:07:01;;;;;;;2.35;0.80;;;;;;;9.94;58.46;96423.00;5031518;28;20041;-65
2021/05/26 02:09:27;;;;;;;3.05;0.90;;;;;;;9.86;58.13;96415.56;5031046;28;20503;-65
2021/05/26 02:14:38;;;;;;;2.78;1.05;;;;;;;9.78;59.64;96419.06;5030859;28;20052;-65
2021/05/26 02:17:04;;;;;;;2.28;0.80;;;;;;;9.73;60.52;96419.19;5030607;28;20100;-65
2021/05/26 02:19:30;;;;;;;5.43;1.10;;;;;;;9.74;59.93;96412.63;5030855;28;20049;-65
2021/05/26 02:21:56;;;;;;;2.92;1.00;;;;;;;9.67;59.06;96413.88;5030914;28;20053;-65
2021/05/26 02:24:22;;;;;;;4.15;0.95;;;;;;;9.60;59.27;96410.78;5030271;28;20053;-65
2021/05/26 02:26:48;;;;;;;3.47;0.90;;;;;;;9.58;60.30;96409.50;5030922;28;20041;-65
2021/05/26 02:29:14;;;;;;;2.33;0.80;;;;;;;9.58;60.95;96410.31;5030234;28;20041;-65
2021/05/26 02:31:40;;;;;;;2.00;0.85;;;;;;;9.60;60.40;96413.50;5042760;28;20061;-65
2021/05/26 02:34:06;;;;;;;1.20;0.80;;;;;;;9.58;60.32;96410.31;5050043;28;20103;-66
2021/05/26 02:36:32;;;;;;;2.92;1.00;;;;;;;9.57;61.39;96407.91;5050688;28;20132;-65
2021/05/26 02:38:58;;;;;;;2.60;1.10;;;;;;;9.55;61.48;96405.50;5050433;28;20071;-65
2021/05/26 02:41:24;;;;;;;2.97;0.90;;;;;;;9.55;61.56;96410.09;5050351;28;20642;-65
2021/05/26 02:43:50;;;;;;;3.42;1.00;;;;;;;9.53;61.96;96398.75;5050669;28;20049;-65
2021/05/26 02:46:16;;;;;;;3.75;1.02;;;;;;;9.51;61.16;96396.34;5049953;28;20423;-65
2021/05/26 02:48:43;;;;;;;2.55;0.90;;;;;;;9.51;60.93;96393.63;5050272;28;20048;-65
2021/05/26 02:51:09;;;;;;;1.90;0.80;;;;;;;9.50;60.36;96394.75;5049957;28;20496;-65
2021/05/26 02:53:35;;;;;;;4.65;0.90;;;;;;;9.50;59.46;96386.59;5050320;28;20496;-65
2021/05/26 02:56:01;;;;;;;4.07;0.82;;;;;;;9.49;59.77;96384.16;5050474;28;20094;-65
2021/05/26 02:58:27;;;;;;;1.88;0.80;;;;;;;9.50;57.73;96381.16;5049853;28;20048;-65
2021/05/26 03:00:53;;;;;;;3.47;0.80;;;;;;;9.50;57.67;96375.72;5042530;28;20068;-65
2021/05/26 03:03:19;;;;;;;1.85;0.60;;;;;;;9.52;57.80;96378.13;5029998;28;20045;-65
2021/05/26 03:05:45;;;;;;;4.80;1.10;;;;;;;9.53;57.35;96382.44;5030417;28;20048;-65
2021/05/26 03:08:11;;;;;;;1.50;0.70;;;;;;;9.54;57.13;96382.13;5029880;28;20100;-65
2021/05/26 03:10:37;;;;;;;1.58;0.68;;;;;;;9.57;57.77;96380.72;5030397;28;20053;-65
2021/05/26 03:13:03;;;;;;;0.73;0.55;;;;;;;9.62;58.18;96384.09;5033796;28;20045;-65
2021/05/26 03:15:29;;;;;;;2.63;0.88;;;;;;;9.62;57.76;96373.22;5034284;28;20566;-65
2021/05/26 03:17:55;;;;;;;2.35;0.80;;;;;;;9.63;57.72;96380.28;5034206;28;20065;-65
2021/05/26 03:20:21;;;;;;;1.98;0.90;;;;;;;9.64;58.28;96372.91;5033627;28;20481;-65
2021/05/26 03:22:48;;;;;;;4.07;0.75;;;;;;;9.65;57.80;96372.59;5034209;28;20077;-65
2021/05/26 03:25:15;;;;;;;3.13;1.30;;;;;;;9.68;57.81;96373.91;5033710;28;20100;-65
2021/05/26 03:27:41;;;;;;;2.70;1.00;;;;;;;9.72;58.99;96368.66;5033958;28;20777;-65
2021/05/26 03:30:10;;;;;;;16.80;3.00;;;;;;;9.67;58.70;96366.88;5034671;28;20550;-66
2021/05/26 03:32:38;;;;;;;1.52;0.85;;;;;;;9.61;58.79;96365.41;5033938;28;20049;-65
2021/05/26 03:35:05;;;;;;;2.88;1.10;;;;;;;9.60;59.91;96370.00;5033345;28;20084;-65
2021/05/26 03:37:31;;;;;;;3.30;0.90;;;;;;;9.58;59.95;96366.81;5033705;28;20041;-65
2021/05/26 03:39:58;;;;;;;1.75;0.93;;;;;;;9.58;61.03;96369.53;5034124;28;20084;-65
2021/05/26 03:42:24;;;;;;;2.42;0.70;;;;;;;9.57;60.79;96362.50;5033281;28;20455;-65
2021/05/26 03:44:50;;;;;;;1.40;0.82;;;;;;;9.54;60.73;96365.00;5033569;28;20041;-65
2021/05/26 03:47:16;;;;;;;4.05;1.15;;;;;;;9.55;61.11;96362.00;5033340;28;20108;-65
2021/05/26 03:49:42;;;;;;;1.80;1.00;;;;;;;9.53;61.32;96361.50;5033505;28;20065;-65
2021/05/26 03:52:08;;;;;;;3.60;0.93;;;;;;;9.53;60.61;96353.34;5033104;28;20045;-66
2021/05/26 03:54:34;;;;;;;5.32;1.10;;;;;;;9.58;59.83;96360.56;5033517;28;20048;-65
2021/05/26 03:57:01;;;;;;;4.43;0.98;;;;;;;9.58;59.14;96361.38;5033288;28;20041;-65
2021/05/26 03:59:27;;;;;;;4.72;1.25;;;;;;;9.59;57.89;96357.53;5033141;28;20042;-65
2021/05/26 04:01:53;;;;;;;3.13;0.90;;;;;;;9.60;57.15;96359.13;5034583;28;20084;-65
2021/05/26 04:04:19;;;;;;;3.30;0.80;;;;;;;9.61;58.00;96363.47;5032730;28;20049;-65
2021/05/26 04:06:45;;;;;;;2.42;0.80;;;;;;;9.63;56.70;96363.97;5033208;28;20046;-65
2021/05/26 04:09:11;;;;;;;1.80;0.88;;;;;;;9.61;57.69;96358.03;5032634;28;20046;-65
2021/05/26 04:11:37;;;;;;;2.15;1.00;;;;;;;9.65;59.22;96356.28;5033263;28;20045;-65
2021/05/26 04:14:04;;;;;;;2.65;0.90;;;;;;;9.71;60.57;96364.31;5032790;28;20064;-65
2021/05/26 04:16:30;;;;;;;3.00;0.80;;;;;;;9.75;58.79;96366.09;5033128;28;20041;-65
2021/05/26 04:18:56;;;;;;;3.55;0.88;;;;;;;9.79;59.50;96366.28;5032865;28;20077;-65
2021/05/26 04:21:22;;;;;;;1.33;0.63;;;;;;;9.86;60.23;96361.19;5032735;28;20124;-65
2021/05/26 04:23:48;;;;;;;1.13;0.70;;;;;;;9.86;57.75;96372.06;5031757;28;20439;-65
2021/05/26 04:26:14;;;;;;;2.25;0.80;;;;;;;9.89;58.92;96360.56;5032589;28;20049;-65
2021/05/26 04:28:43;;;;;;;2.38;0.90;;;;;;;9.89;57.04;96355.94;5032984;28;20045;-65
2021/05/26 04:31:10;;;;;;;2.58;0.90;;;;;;;9.92;58.46;96359.97;5033405;28;20069;-66
2021/05/26 04:33:36;;;;;;;2.47;1.00;;;;;;;9.95;58.21;96343.00;5032756;28;20295;-65
2021/05/26 04:36:02;;;;;;;3.47;1.08;;;;;;;10.01;58.81;96346.38;5031814;28;20053;-66
2021/05/26 04:38:28;;;;;;;9.60;1.38;;;;;;;10.03;57.76;96350.41;5032703;28;20045;-65
2021/05/26 04:40:54;;;;;;;4.20;1.17;;;;;;;10.08;58.77;96352.97;5032767;28;20095;-65
2021/05/26 04:43:20;;;;;;;1.27;0.68;;;;;;;10.11;57.82;96352.34;5031970;28;20132;-65
2021/05/26 04:45:46;;;;;;;1.98;1.17;;;;;;;10.17;56.84;96356.50;5032770;28;20095;-65
2021/05/26 04:48:13;;;;;;;3.22;0.90;;;;;;;10.24;58.55;96360.75;5032117;28;20049;-65
2021/05/26 04:50:39;;;;;;;1.95;0.82;;;;;;;10.23;57.53;96357.16;5032406;28;20087;-65
2021/05/26 04:53:05;;;;;;;3.45;1.23;;;;;;;10.28;57.53;96353.53;5031785;28;20512;-65
2021/05/26 04:55:31;;;;;;;2.25;0.98;;;;;;;10.31;58.09;96355.63;5032118;28;20096;-65
2021/05/26 04:57:58;;;;;;;3.33;1.50;;;;;;;10.31;57.34;96345.56;5031038;28;20124;-65
2021/05/26 05:00:26;;;;;;;9.88;3.80;;;;;;;10.32;57.35;96358.03;5032283;28;20046;-65
2021/05/26 05:02:52;;;;;;;5.97;2.95;;;;;;;10.33;57.85;96353.38;5031458;28;20045;-65
2021/05/26 05:05:18;;;;;;;4.47;1.23;;;;;;;10.36;58.40;96355.50;5030800;28;20560;-65
2021/05/26 05:07:44;;;;;;;3.22;0.93;;;;;;;10.39;58.07;96363.03;5031315;28;20076;-66
2021/05/26 05:10:11;;;;;;;3.35;1.10;;;;;;;10.44;57.98;96349.28;5030629;28;20042;-70
2021/05/26 05:12:37;;;;;;;3.65;0.85;;;;;;;10.54;58.19;96359.84;5031365;28;20052;-71
2021/05/26 05:15:04;;;;;;;3.30;0.75;;;;;;;10.67;57.41;96348.03;5028878;28;20045;-70
2021/05/26 05:17:30;;;;;;;2.95;0.90;;;;;;;10.77;56.92;96351.56;5031858;28;20042;-70
2021/05/26 05:19:56;;;;;;;2.05;0.60;;;;;;;10.88;56.66;96352.84;5031165;28;20381;-70
2021/05/26 05:22:23;;;;;;;2.65;0.80;;;;;;;10.99;55.96;96348.69;5050243;28;20057;-70
2021/05/26 05:24:49;;;;;;;3.30;0.80;;;;;;;11.12;57.10;96352.34;5050820;28;20052;-72
2021/05/26 05:27:15;;;;;;;4.38;0.70;;;;;;;11.23;53.39;96362.63;5050930;28;20068;-72
2021/05/26 05:29:40;;;;;;;2.30;0.70;;;;;;;11.30;55.07;96358.63;5051294;28;20522;-72
2021/05/26 05:32:08;;;;;;;2.88;0.80;;;;;;;11.37;53.48;96348.00;5032573;28;20587;-72
2021/05/26 05:34:34;;;;;;;2.83;0.70;;;;;;;11.47;54.09;96358.59;5031227;28;20100;-73
2021/05/26 05:37:00;;;;;;;3.33;1.10;;;;;;;11.55;52.92;96352.34;5030862;28;20056;-72
2021/05/26 05:39:26;;;;;;;2.47;1.10;;;;;;;11.61;53.14;96342.06;5030708;28;20053;-72
2021/05/26 05:41:52;;;;;;;5.15;1.17;;;;;;;11.71;53.26;96353.41;5030587;28;20408;-72
2021/05/26 05:44:18;;;;;;;3.33;0.90;;;;;;;11.81;53.23;96348.75;5031292;28;20045;-72
2021/05/26 05:46:44;;;;;;;2.80;0.80;;;;;;;11.85;53.97;96350.53;5030802;28;20045;-72
2021/05/26 05:49:10;;;;;;;3.38;0.90;;;;;;;11.91;53.29;96351.94;5031070;28;20049;-71
2021/05/26 05:51:36;;;;;;;3.33;0.73;;;;;;;11.95;54.00;96346.63;5030506;28;20041;-70
2021/05/26 05:54:03;;;;;;;5.72;1.67;;;;;;;12.05;53.22;96345.47;5030956;28;20104;-71
2021/05/26 05:56:30;;;;;;;3.47;0.93;;;;;;;12.05;52.62;96348.97;5030726;28;20630;-71
2021/05/26 05:58:56;;;;;;;2.03;0.90;;;;;;;12.04;53.27;96346.59;5031053;28;20041;-70
2021/05/26 06:01:22;;;;;;;4.13;0.77;;;;;;;12.11;54.23;96338.69;5031567;28;20057;-71
2021/05/26 06:03:47;;;;;;;2.75;0.60;;;;;;;12.20;54.78;96345.72;5030718;28;20128;-71
2021/05/26 06:06:13;;;;;;;2.65;0.80;;;;;;;12.33;54.36;96337.63;5029929;28;20417;-70
2021/05/26 06:08:40;;;;;;;5.88;1.00;;;;;;;12.43;53.27;96340.00;5029572;28;20041;-70
2021/05/26 06:11:07;;;;;;;2.65;0.80;;;;;;;12.52;53.29;96333.31;5030280;28;20079;-70
2021/05/26 06:13:34;;;;;;;2.63;0.93;;;;;;;12.60;53.34;96337.16;5029619;28;20531;-70
2021/05/26 06:16:00;;;;;;;3.53;0.73;;;;;;;12.69;54.04;96332.44;5030587;28;20045;-71
2021/05/26 06:18:26;;;;;;;1.40;0.60;;;;;;;12.78;52.04;96341.34;5029232;28;20551;-70
2021/05/26 06:20:52;;;;;;;3.22;0.80;;;;;;;12.76;51.60;96338.16;5030814;28;20099;-70
2021/05/26 06:23:18;;;;;;;2.05;0.80;;;;;;;12.84;52.71;96333.75;5029790;28;20050;-71
2021/05/26 06:25:44;;;;;;;2.85;1.25;;;;;;;12.87;51.20;96335.03;5030881;28;20096;-70
2021/05/26 06:28:10;;;;;;;4.95;0.82;;;;;;;12.96;51.29;96335.78;5030256;28;20053;-70
2021/05/26 06:30:37;;;;;;;2.53;0.90;;;;;;;13.02;51.86;96334.44;5037415;28;20046;-70
2021/05/26 06:33:03;;;;;;;3.80;0.90;;;;;;;13.09;50.96;96329.22;5050303;28;20052;-70
2021/05/26 06:35:29;;;;;;;1.50;0.70;;;;;;;13.15;50.48;96327.88;5051225;28;20053;-70
2021/05/26 06:37:55;;;;;;;2.42;0.77;;;;;;;13.16;51.00;96325.97;5050792;28;20048;-70
2021/05/26 06:40:20;;;;;;;3.83;0.80;;;;;;;13.22;51.15;96325.47;5050587;28;20041;-70
2021/05/26 06:42:46;;;;;;;3.08;0.93;;;;;;;13.28;50.82;96321.38;5050953;28;20136;-70
2021/05/26 06:45:13;;;;;;;4.05;0.80;;;;;;;13.39;50.29;96310.03;5050280;28;20045;-70
2021/05/26 06:47:40;;;;;;;2.63;0.68;;;;;;;13.47;52.24;96317.34;5054551;28;20041;-70
2021/05/26 06:50:07;;;;;;;3.65;0.80;;;;;;;13.56;50.59;96315.31;5054517;28;20056;-70
2021/05/26 06:52:33;;;;;;;3.60;0.88;;;;;;;13.51;50.41;96307.31;5054846;28;20060;-71
2021/05/26 06:54:59;;;;;;;2.15;0.77;;;;;;;13.56;51.63;96309.84;5055027;28;20076;-71
2021/05/26 06:57:25;;;;;;;2.95;0.68;;;;;;;13.59;50.08;96309.16;5054071;28;20049;-71
2021/05/26 06:59:51;;;;;;;4.38;0.90;;;;;;;13.68;48.95;96307.16;5054242;28;20160;-70
2021/05/26 07:02:16;;;;;;;5.15;1.10;;;;;;;13.64;48.54;96308.94;5034161;28;20582;-71
2021/05/26 07:04:43;;;;;;;2.33;0.70;;;;;;;13.60;47.51;96299.81;5034744;28;20111;-70
2021/05/26 07:07:09;;;;;;;1.15;0.60;;;;;;;13.66;47.65;96303.94;5033964;28;20041;-71
2021/05/26 07:09:35;;;;;;;4.88;0.65;;;;;;;13.73;46.84;96304.19;5034585;28;20050;-71
2021/05/26 07:12:01;;;;;;;4.43;0.70;;;;;;;13.86;47.08;96304.19;5034631;28;20049;-70
2021/05/26 07:14:28;;;;;;;2.70;0.60;;;;;;;13.91;47.06;96309.44;5034478;28;20045;-70
2021/05/26 07:16:54;;;;;;;1.50;0.60;;;;;;;13.92;45.69;96306.38;5034426;28;20049;-70
2021/05/26 07:19:20;;;;;;;2.53;0.73;;;;;;;13.96;44.91;96301.03;5053906;28;20515;-70
2021/05/26 07:21:47;;;;;;;2.85;0.90;;;;;;;14.05;46.80;96298.97;5054195;28;20056;-70
2021/05/26 07:24:12;;;;;;;1.60;0.70;;;;;;;14.14;44.33;96288.69;5053537;28;20052;-71
2021/05/26 07:26:39;;;;;;;1.92;0.60;;;;;;;14.23;43.39;96289.38;5054225;28;20049;-70
2021/05/26 07:29:05;;;;;;;1.30;0.75;;;;;;;14.30;44.79;96281.41;5053627;28;20056;-71
2021/05/26 07:31:30;;;;;;;1.17;0.73;;;;;;;14.40;43.76;96287.53;5040761;28;20045;-70
2021/05/26 07:33:58;;;;;;;2.28;0.65;;;;;;;14.38;43.38;96278.88;5034175;28;20094;-70
2021/05/26 07:36:24;;;;;;;2.42;0.65;;;;;;;14.40;45.54;96276.59;5033733;28;20491;-70
2021/05/26 07:38:52;;;;;;;3.80;0.85;;;;;;;14.57;43.29;96277.19;5034076;28;20053;-70
2021/05/26 07:41:18;;;;;;;3.25;0.63;;;;;;;14.74;42.15;96273.38;5033851;28;20048;-70
2021/05/26 07:43:44;;;;;;;1.48;0.65;;;;;;;14.75;43.21;96269.47;5034245;28;20034;-70
2021/05/26 07:46:11;;;;;;;4.65;0.90;;;;;;;14.93;50.30;96271.94;5033625;28;20053;-70
2021/05/26 07:48:37;;;;;;;3.45;0.82;;;;;;;15.09;42.70;96264.59;5034009;28;20049;-71
2021/05/26 07:51:04;;;;;;;1.83;0.60;;;;;;;15.14;42.10;96261.59;5033433;28;20123;-70
2021/05/26 07:53:30;;;;;;;1.48;0.50;;;;;;;15.34;46.44;96260.56;5033691;28;20042;-69
2021/05/26 07:55:57;;;;;;;3.17;0.60;;;;;;;15.44;43.17;96263.94;5034145;28;20096;-72
2021/05/26 07:58:23;;;;;;;2.15;0.55;;;;;;;15.65;41.88;96270.03;5033250;28;20046;-72
2021/05/26 08:00:49;;;;;;;1.60;0.52;;;;;;;15.78;44.30;96268.81;5034853;28;20045;-71
2021/05/26 08:03:15;;;;;;;6.32;0.98;;;;;;;15.81;43.07;96259.84;5033219;28;20090;-70
2021/05/26 08:05:41;;;;;;;2.47;0.80;;;;;;;16.47;45.03;96254.75;5033718;28;20484;-72
2021/05/26 08:08:07;;;;;;;4.35;0.80;;;;;;;17.18;40.69;96253.53;5033245;28;20492;-70
2021/05/26 08:10:33;;;;;;;2.70;0.70;;;;;;;17.28;41.86;96239.19;5033823;28;20489;-70
2021/05/26 08:13:00;;;;;;;2.72;0.90;;;;;;;17.55;43.70;96242.03;5033482;28;20048;-70
2021/05/26 08:15:26;;;;;;;2.13;0.70;;;;;;;17.51;37.86;96233.72;5033116;28;20045;-70
2021/05/26 08:17:52;;;;;;;2.30;0.73;;;;;;;17.51;39.63;96230.97;5033219;28;20073;-70
2021/05/26 08:20:18;;;;;;;1.88;0.60;;;;;;;17.52;40.05;96234.50;5032661;28;20056;-70
2021/05/26 08:22:44;;;;;;;2.80;0.85;;;;;;;17.41;39.87;96221.34;5033584;28;20061;-71
2021/05/26 08:25:10;;;;;;;1.98;0.60;;;;;;;17.22;42.50;96227.66;5033081;28;20045;-70
2021/05/26 08:27:37;;;;;;;4.10;1.00;;;;;;;17.12;40.34;96227.47;5033273;28;20041;-70
2021/05/26 08:30:06;;;;;;;4.60;0.85;;;;;;;16.84;40.11;96225.72;5033996;28;20057;-70
2021/05/26 08:32:32;;;;;;;1.95;0.98;;;;;;;16.66;42.82;96219.03;5033172;28;20041;-70
2021/05/26 08:34:58;;;;;;;3.30;0.85;;;;;;;16.62;43.03;96221.72;5033080;28;20047;-70
2021/05/26 08:37:24;;;;;;;2.45;0.80;;;;;;;16.42;40.90;96234.63;5032579;28;20041;-72
2021/05/26 08:39:51;;;;;;;6.45;1.17;;;;;;;16.20;42.17;96216.06;5032707;28;20140;-71
2021/05/26 08:42:17;;;;;;;4.35;0.80;;;;;;;15.96;43.16;96217.06;5032478;28;20056;-70
2021/05/26 08:44:43;;;;;;;3.92;0.88;;;;;;;15.87;45.38;96221.97;5033051;28;20045;-70
2021/05/26 08:47:15;;;;;;;2.10;0.80;;;;;;;15.89;45.29;96214.94;5032496;28;20042;-70
2021/05/26 08:49:44;;;;;;;3.83;0.85;;;;;;;15.85;46.10;96213.25;5032689;28;20053;-69
2021/05/26 08:52:10;;;;;;;2.35;0.80;;;;;;;15.84;46.02;96217.16;5032351;28;20049;-70
2021/05/26 08:54:36;;;;;;;1.98;0.60;;;;;;;15.84;41.82;96206.19;5032656;28;20042;-70
2021/05/26 08:57:02;;;;;;;4.47;0.80;;;;;;;15.80;44.15;96211.59;5032311;28;20045;-70
2021/05/26 08:59:28;;;;;;;4.13;0.70;;;;;;;15.67;45.79;96212.84;5032743;28;20484;-69
2021/05/26 09:01:54;;;;;;;1.52;0.60;;;;;;;15.79;46.39;96206.47;5050023;28;20049;-69
2021/05/26 09:04:29;;;;;;;2.05;0.60;;;;;;;15.89;41.49;96198.47;5052013;28;20041;-69
2021/05/26 09:07:14;;;;;;;4.18;0.82;;;;;;;15.81;40.84;96193.94;5052454;28;20114;-69
2021/05/26 09:09:52;;;;;;;2.58;0.75;;;;;;;15.69;42.15;96191.31;5051586;28;20037;-72
2021/05/26 09:12:26;;;;;;;3.13;0.93;;;;;;;15.67;43.41;96196.38;5051685;28;20094;-70
2021/05/26 09:14:53;;;;;;;4.40;0.73;;;;;;;15.65;42.91;96193.16;5052458;28;20086;-69
2021/05/26 09:17:19;;;;;;;1.50;0.68;;;;;;;15.57;42.46;96183.16;5051796;28;20056;-70
2021/05/26 09:19:46;;;;;;;1.58;0.65;;;;;;;15.51;44.63;96187.31;5052121;28;20056;-69
2021/05/26 09:22:14;;;;;;;3.53;0.88;;;;;;;15.50;45.25;96186.50;5051691;28;20048;-70
2021/05/26 09:24:40;;;;;;;4.78;0.90;;;;;;;15.52;44.58;96194.38;5051931;28;20051;-69
2021/05/26 09:27:08;;;;;;;2.35;0.82;;;;;;;15.59;43.89;96189.06;5051461;28;20115;-69
2021/05/26 09:29:36;;;;;;;2.67;0.80;;;;;;;15.63;44.44;96192.75;5052370;28;20099;-69
2021/05/26 09:32:21;;;;;;;3.00;0.70;;;;;;;15.65;41.76;96193.16;5034005;28;20045;-70
2021/05/26 09:34:49;;;;;;;2.10;0.70;;;;;;;15.75;42.99;96198.13;5031900;28;20072;-70
2021/05/26 09:37:17;;;;;;;3.90;0.65;;;;;;;15.79;45.96;96187.25;5030683;28;20045;-70
2021/05/26 09:39:52;;;;;;;4.40;1.05;;;;;;;15.80;45.05;96184.13;5031686;28;20389;-71
2021/05/26 09:42:34;;;;;;;2.30;0.95;;;;;;;15.76;43.47;96194.22;5030800;28;20050;-70
2021/05/26 09:45:06;;;;;;;3.30;1.05;;;;;;;15.76;43.42;96177.75;5030949;28;20056;-70
2021/05/26 09:47:36;;;;;;;4.82;1.15;;;;;;;15.77;42.54;96173.88;5013984;28;20461;-70
2021/05/26 09:50:21;;;;;;;3.53;0.90;;;;;;;15.81;43.02;96166.50;5031135;28;20053;-70
2021/05/26 09:52:52;;;;;;;4.85;1.00;;;;;;;15.79;46.70;96163.31;5031725;28;20042;-70
2021/05/26 09:55:21;;;;;;;3.30;0.93;;;;;;;15.90;41.31;96169.84;5030042;28;20060;-71
2021/05/26 09:57:50;;;;;;;1.00;0.45;;;;;;;15.84;43.87;96162.25;5031577;28;20085;-70
2021/05/26 10:00:17;;;;;;;9.52;1.80;;;;;;;15.97;45.57;96160.97;5031230;28;20053;-70
2021/05/26 10:02:43;;;;;;;6.85;1.65;;;;;;;16.14;45.28;96160.59;5030855;28;20045;-70
2021/05/26 10:05:11;;;;;;;2.53;0.80;;;;;;;16.22;42.14;96158.81;5030441;28;20123;-71
2021/05/26 10:07:39;;;;;;;99.60;19.85;;;;;;;16.31;45.04;96153.91;5030720;28;20037;-69
2021/05/26 10:10:11;;;;;;;4.97;1.30;;;;;;;16.39;44.06;96154.84;5030728;28;20046;-70
2021/05/26 10:12:38;;;;;;;2.90;0.90;;;;;;;16.50;42.71;96155.88;5030351;28;20084;-70
2021/05/26 10:15:07;;;;;;;54.88;10.25;;;;;;;16.55;43.20;96160.28;5030816;28;20341;-70
2021/05/26 10:17:36;;;;;;;3.40;0.90;;;;;;;16.63;40.14;96165.56;5030324;28;20389;-70
2021/05/26 10:20:06;;;;;;;38.80;8.48;;;;;;;16.47;40.72;96156.59;5030268;28;20128;-70
2021/05/26 10:22:33;;;;;;;7.72;2.00;;;;;;;16.42;41.71;96170.63;5030502;28;20041;-70
2021/05/26 10:25:00;;;;;;;2.95;1.10;;;;;;;16.30;39.52;96155.06;5030785;28;20056;-71
2021/05/26 10:27:35;;;;;;;5.10;1.00;;;;;;;16.35;40.08;96154.78;5030204;28;20401;-70
2021/05/26 10:30:02;;;;;;;2.55;0.80;;;;;;;16.52;43.43;96152.75;5030285;28;20132;-70
2021/05/26 10:32:47;;;;;;;4.68;1.23;;;;;;;16.63;43.80;96157.31;5030746;28;20045;-70
2021/05/26 10:35:13;;;;;;;5.10;0.93;;;;;;;16.72;43.64;96162.63;5014807;28;20076;-70
2021/05/26 10:37:41;;;;;;;6.43;1.40;;;;;;;16.77;42.60;96165.09;5030753;28;20045;-70
2021/05/26 10:40:42;;;;;;;2.60;1.00;;;;;;;16.90;44.84;96163.78;5029489;28;20136;-70
2021/05/26 10:43:31;;;;;;;4.05;1.60;;;;;;;16.80;40.66;96158.06;4988069;28;20636;-70
2021/05/26 10:45:59;;;;;;;2.70;1.00;;;;;;;16.62;42.32;96163.19;5028253;28;20045;-70
2021/05/26 10:49:03;;;;;;;1.63;0.80;;;;;;;16.59;40.62;96163.91;5030521;28;20041;-70
2021/05/26 10:51:56;;;;;;;4.00;1.13;;;;;;;16.41;40.72;96150.59;5030147;28;20117;-70
2021/05/26 10:54:41;;;;;;;;;;;;;;;16.28;41.93;96154.63;5021152;28;20042;-70
2021/05/26 10:57:09;;;;;;;2.50;0.90;;;;;;;16.19;41.76;96162.28;5029369;28;19924;-70
2021/05/26 10:59:36;;;;;;;3.75;1.38;;;;;;;15.98;43.35;96156.31;5030594;28;20500;-72
2021/05/26 11:02:09;;;;;;;3.08;0.95;;;;;;;15.98;45.75;96164.56;5030304;28;20046;-70
2021/05/26 11:04:36;;;;;;;3.10;0.73;;;;;;;15.87;45.50;96156.84;5030804;28;20094;-69
2021/05/26 11:07:18;;;;;;;3.60;0.90;;;;;;;15.78;44.60;96152.72;5029384;28;20058;-70
2021/05/26 11:09:54;;;;;;;2.15;0.98;;;;;;;15.72;44.43;96157.66;5030216;28;20041;-70
2021/05/26 11:12:21;;;;;;;3.63;0.95;;;;;;;15.77;43.63;96157.41;5029787;28;20037;-71
2021/05/26 11:14:48;;;;;;;7.97;1.40;;;;;;;15.77;46.14;96157.41;5029781;28;20057;-70
2021/05/26 11:17:20;;;;;;;4.35;1.02;;;;;;;15.76;46.05;96144.81;5030089;28;20046;-71
2021/05/26 11:19:46;;;;;;;4.07;1.10;;;;;;;15.78;45.05;96137.03;5029390;28;20056;-70
2021/05/26 11:22:14;;;;;;;4.57;1.35;;;;;;;15.81;43.36;96130.00;5030101;28;20052;-70
2021/05/26 11:24:42;;;;;;;3.45;0.80;;;;;;;15.75;42.55;96137.72;5029719;28;20044;-71
2021/05/26 11:27:14;;;;;;;3.70;1.00;;;;;;;15.72;43.62;96126.69;5029750;28;20056;-71
2021/05/26 11:29:41;;;;;;;3.13;0.57;;;;;;;15.71;44.33;96131.34;5029906;28;20045;-70
2021/05/26 11:32:09;;;;;;;4.57;0.95;;;;;;;15.77;46.53;96134.66;5049203;28;20072;-70
2021/05/26 11:34:35;;;;;;;2.53;0.80;;;;;;;15.76;45.61;96139.31;5053562;28;20048;-70
2021/05/26 11:37:02;;;;;;;3.20;0.80;;;;;;;15.78;46.34;96137.03;5053155;28;20111;-71
2021/05/26 11:39:30;;;;;;;3.20;1.02;;;;;;;15.74;47.28;96127.91;5053450;28;20514;-70